Time;durP1;ratioP1;P1;durP2;ratioP2;P2;SDS_P1;SDS_P2;PMS_P1;PMS_P2;Temp;Humidity;BMP_temperature;BMP_pressure;BME280_temperature;BME280_humidity;BME280_pressure;Samples;Min_cycle;Max_cycle;Signal;HPM_P1;HPM_P2
2023/09/12 00:02:18;;;;;;;12.23;10.50;;;;;;;18.32;66.34;100592.75;7398604;19;20031;-70
2023/09/12 00:04:46;;;;;;;14.80;11.27;;;;;;;18.28;66.02;100592.06;7398632;19;20084;-71
2023/09/12 00:07:15;;;;;;;12.27;9.98;;;;;;;18.25;66.26;100592.25;7401082;19;20011;-70
2023/09/12 00:09:43;;;;;;;11.98;10.70;;;;;;;18.22;66.10;100593.28;7398132;19;20078;-70
2023/09/12 00:12:16;;;;;;;11.23;9.52;;;;;;;18.18;66.45;100594.38;7398606;19;20039;-71
2023/09/12 00:14:44;;;;;;;13.57;11.60;;;;;;;18.18;66.46;100605.00;7400293;19;20074;-70
2023/09/12 00:17:13;;;;;;;13.15;10.68;;;;;;;18.16;66.53;100598.06;7397791;19;20545;-68
2023/09/12 00:19:41;;;;;;;12.93;10.95;;;;;;;18.13;66.14;100598.25;7400631;19;20022;-70
2023/09/12 00:22:10;;;;;;;13.85;11.10;;;;;;;18.10;66.48;100593.09;7397528;19;20074;-70
2023/09/12 00:24:38;;;;;;;12.15;10.27;;;;;;;18.07;66.21;100592.34;7400152;19;20011;-70
2023/09/12 00:27:07;;;;;;;12.02;10.77;;;;;;;18.04;66.12;100597.78;7397419;19;20502;-70
2023/09/12 00:29:38;;;;;;;14.52;11.43;;;;;;;18.02;66.05;100589.09;7397273;19;20428;-68
2023/09/12 00:32:07;;;;;;;12.38;11.00;;;;;;;18.00;66.53;100590.94;7397499;19;20027;-70
2023/09/12 00:34:36;;;;;;;11.40;10.07;;;;;;;17.99;66.59;100594.53;7397552;19;20070;-68
2023/09/12 00:37:04;;;;;;;12.05;9.93;;;;;;;17.97;66.78;100596.44;7399995;19;20042;-70
2023/09/12 00:39:33;;;;;;;13.38;10.77;;;;;;;17.96;66.71;100591.19;7399859;19;20073;-68
2023/09/12 00:42:01;;;;;;;12.13;9.65;;;;;;;17.94;66.78;100587.78;7398666;19;20538;-69
2023/09/12 00:44:30;;;;;;;11.18;10.07;;;;;;;17.92;66.55;100585.19;7398373;19;20083;-68
2023/09/12 00:47:02;;;;;;;12.02;10.73;;;;;;;17.89;66.61;100580.03;7397348;19;20078;-69
2023/09/12 00:49:32;;;;;;;11.95;10.75;;;;;;;17.87;66.70;100588.09;7399632;19;20099;-68
2023/09/12 00:52:02;;;;;;;13.00;11.60;;;;;;;17.85;66.25;100587.31;7397082;19;20077;-69
2023/09/12 00:54:30;;;;;;;11.65;9.95;;;;;;;17.84;66.36;100585.59;7397360;19;20014;-69
2023/09/12 00:56:59;;;;;;;12.68;10.55;;;;;;;17.82;66.68;100584.84;7398969;19;20074;-69
2023/09/12 00:59:27;;;;;;;12.02;10.75;;;;;;;17.81;66.49;100583.13;7396570;19;20073;-68
2023/09/12 01:01:56;;;;;;;10.70;9.60;;;;;;;17.79;66.77;100587.63;7397017;19;20074;-70
2023/09/12 01:04:27;;;;;;;12.05;10.77;;;;;;;17.78;66.65;100579.78;7397724;19;20099;-71
2023/09/12 01:06:56;;;;;;;12.52;10.60;;;;;;;17.75;66.87;100584.31;7397268;19;20072;-71
2023/09/12 01:09:24;;;;;;;12.43;10.50;;;;;;;17.74;67.23;100576.41;7398928;19;20078;-70
2023/09/12 01:11:53;;;;;;;11.88;10.77;;;;;;;17.73;67.12;100583.53;7396532;19;20078;-70
2023/09/12 01:14:21;;;;;;;11.80;10.55;;;;;;;17.71;67.30;100582.75;7391809;19;20399;-69
2023/09/12 01:16:50;;;;;;;12.52;11.23;;;;;;;17.70;67.65;100585.50;7398731;19;20083;-70
2023/09/12 01:19:19;;;;;;;12.45;10.90;;;;;;;17.67;67.80;100581.22;7398644;19;20022;-71
2023/09/12 01:22:32;;;;;;;13.50;11.48;;;;;;;17.64;67.74;100581.41;7398506;19;20019;-70
2023/09/12 01:25:15;;;;;;;12.77;11.35;;;;;;;17.61;67.87;100576.22;7396320;19;20078;-70
2023/09/12 01:27:49;;;;;;;11.93;10.68;;;;;;;17.59;68.04;100572.78;7398698;19;20078;-69
2023/09/12 01:30:21;;;;;;;12.00;10.88;;;;;;;17.57;68.39;100580.00;7398373;19;20017;-69
2023/09/12 01:32:50;;;;;;;12.48;11.18;;;;;;;17.54;68.50;100580.16;7397956;19;20081;-70
2023/09/12 01:35:18;;;;;;;15.18;11.23;;;;;;;17.52;68.49;100582.03;7398089;19;20074;-70
2023/09/12 01:37:46;;;;;;;12.85;11.23;;;;;;;17.49;68.59;100582.19;7397676;19;20506;-70
2023/09/12 01:40:16;;;;;;;12.13;10.90;;;;;;;17.46;68.44;100577.91;7397875;19;20031;-70
2023/09/12 01:42:49;;;;;;;12.43;11.13;;;;;;;17.43;68.77;100573.63;7397470;19;20015;-70
2023/09/12 01:45:20;;;;;;;12.93;11.05;;;;;;;17.41;68.91;100578.19;7398163;19;20097;-70
2023/09/12 01:47:52;;;;;;;13.43;10.93;;;;;;;17.39;69.14;100572.09;7395491;19;20581;-69
2023/09/12 01:50:22;;;;;;;12.50;11.27;;;;;;;17.37;69.03;100576.59;7396912;19;20486;-69
2023/09/12 01:52:51;;;;;;;12.40;11.20;;;;;;;17.33;68.94;100567.09;7397483;19;20097;-70
2023/09/12 01:55:21;;;;;;;12.68;11.32;;;;;;;17.33;69.30;100574.22;7395026;19;20082;-70
2023/09/12 01:57:52;;;;;;;12.40;10.90;;;;;;;17.29;69.57;100570.88;7396817;19;20089;-70
2023/09/12 02:00:22;;;;;;;13.65;11.07;;;;;;;17.26;69.60;100574.53;7397667;19;20014;-70
2023/09/12 02:02:51;;;;;;;13.50;11.05;;;;;;;17.25;69.40;100582.56;7396433;19;20026;-71
2023/09/12 02:05:22;;;;;;;12.80;11.50;;;;;;;17.24;69.58;100578.19;7401304;19;20027;-71
2023/09/12 02:07:51;;;;;;;12.52;10.68;;;;;;;17.21;69.83;100584.53;7395756;19;20010;-70
2023/09/12 02:10:19;;;;;;;12.55;11.25;;;;;;;17.18;69.58;100573.22;7396689;19;20419;-71
2023/09/12 02:12:48;;;;;;;14.82;11.35;;;;;;;17.15;69.94;100578.66;7395930;19;20014;-70
2023/09/12 02:15:19;;;;;;;14.80;12.13;;;;;;;17.13;70.18;100575.25;7396319;19;20019;-69
2023/09/12 02:17:50;;;;;;;12.63;11.15;;;;;;;17.07;69.89;100572.00;7396739;19;20078;-70
2023/09/12 02:20:18;;;;;;;13.93;11.10;;;;;;;17.07;69.76;100568.47;7396985;19;20017;-69
2023/09/12 02:22:47;;;;;;;15.65;11.77;;;;;;;17.05;69.97;100565.91;7396147;19;20031;-71
2023/09/12 02:25:16;;;;;;;13.05;11.25;;;;;;;17.03;69.60;100565.09;7394685;19;20010;-70
2023/09/12 02:27:44;;;;;;;12.48;11.25;;;;;;;17.02;69.75;100565.19;7395998;19;20070;-70
2023/09/12 02:30:13;;;;;;;15.07;12.40;;;;;;;17.00;69.37;100562.63;7395930;19;20539;-71
2023/09/12 02:32:44;;;;;;;13.77;11.27;;;;;;;16.99;69.89;100568.03;7394450;19;20082;-70
2023/09/12 02:35:12;;;;;;;12.30;11.10;;;;;;;16.97;69.63;100564.56;7396615;19;20016;-69
2023/09/12 02:37:41;;;;;;;13.55;12.25;;;;;;;16.95;69.42;100562.00;7395947;19;20027;-71
2023/09/12 02:40:11;;;;;;;12.50;11.25;;;;;;;16.94;69.59;100561.13;7395736;19;20018;-70
2023/09/12 02:42:40;;;;;;;14.23;11.88;;;;;;;16.93;69.37;100564.75;7395559;19;20022;-70
2023/09/12 02:45:10;;;;;;;13.98;12.00;;;;;;;16.92;69.77;100556.84;7395806;19;20034;-69
2023/09/12 02:47:38;;;;;;;13.85;12.00;;;;;;;16.90;69.69;100556.91;7395669;19;20400;-69
2023/09/12 02:50:10;;;;;;;14.23;12.25;;;;;;;16.90;69.48;100561.38;7395592;19;20075;-70
2023/09/12 02:52:38;;;;;;;14.00;12.18;;;;;;;16.88;69.82;100561.44;7394103;19;20075;-70
2023/09/12 02:55:08;;;;;;;12.30;11.10;;;;;;;16.86;69.95;100558.00;7395073;19;20482;-70
2023/09/12 02:57:36;;;;;;;12.77;11.55;;;;;;;16.86;69.64;100557.16;7395283;19;20028;-69
2023/09/12 03:00:07;;;;;;;14.88;13.30;;;;;;;16.82;69.86;100556.47;7395228;19;20494;-70
2023/09/12 03:02:35;;;;;;;14.25;11.77;;;;;;;16.81;70.14;100553.88;7395506;19;20010;-70
2023/09/12 03:05:04;;;;;;;16.67;12.50;;;;;;;16.78;70.08;100553.09;7395169;19;20087;-69
2023/09/12 03:07:35;;;;;;;13.48;12.10;;;;;;;16.77;70.42;100551.38;7403118;19;20025;-72
2023/09/12 03:10:03;;;;;;;13.20;11.38;;;;;;;16.75;70.29;100553.25;7407983;19;20094;-70
2023/09/12 03:12:32;;;;;;;14.15;11.18;;;;;;;16.74;70.34;100548.03;7407385;19;20078;-70
2023/09/12 03:15:00;;;;;;;12.70;11.40;;;;;;;16.72;70.61;100541.94;7406995;19;20411;-71
2023/09/12 03:17:30;;;;;;;13.60;10.85;;;;;;;16.71;70.69;100549.03;7409122;19;20422;-70
2023/09/12 03:20:00;;;;;;;13.93;11.07;;;;;;;16.70;70.70;100544.66;7409802;19;20070;-71
2023/09/12 03:22:28;;;;;;;11.45;10.25;;;;;;;16.69;70.87;100544.75;7408695;19;20066;-70
2023/09/12 03:24:59;;;;;;;14.50;11.70;;;;;;;16.67;70.96;100546.63;7409102;19;20082;-70
2023/09/12 03:27:28;;;;;;;13.05;11.30;;;;;;;16.65;71.02;100544.06;7409124;19;20019;-70
2023/09/12 03:29:56;;;;;;;15.95;11.93;;;;;;;16.63;71.11;100542.41;7408934;19;20014;-69
2023/09/12 03:32:25;;;;;;;11.57;10.48;;;;;;;16.61;71.03;100542.50;7406973;19;20002;-69
2023/09/12 03:34:53;;;;;;;16.48;11.63;;;;;;;16.59;71.06;100549.66;7406493;19;20028;-70
2023/09/12 03:37:22;;;;;;;13.35;11.75;;;;;;;16.56;71.38;100549.81;7408180;19;20414;-72
2023/09/12 03:39:50;;;;;;;13.05;11.75;;;;;;;16.53;71.51;100555.25;7407859;19;20035;-70
2023/09/12 03:42:21;;;;;;;13.35;11.85;;;;;;;16.50;71.50;100552.78;7407663;19;20010;-70
2023/09/12 03:44:50;;;;;;;12.90;11.43;;;;;;;16.45;71.39;100553.88;7405753;19;20372;-71
2023/09/12 03:47:18;;;;;;;12.98;11.68;;;;;;;16.43;71.75;100552.22;7408049;19;20024;-70
2023/09/12 03:49:46;;;;;;;13.43;11.75;;;;;;;16.38;71.61;100557.75;7409027;19;20075;-73
2023/09/12 03:52:15;;;;;;;15.25;12.55;;;;;;;16.36;71.53;100554.28;7407101;19;20015;-70
2023/09/12 03:54:43;;;;;;;17.67;12.18;;;;;;;16.34;71.63;100561.47;7405959;19;20014;-70
2023/09/12 03:57:12;;;;;;;13.68;11.60;;;;;;;16.33;71.69;100559.75;7408252;19;20031;-70
2023/09/12 03:59:43;;;;;;;13.80;12.40;;;;;;;16.31;71.45;100558.97;7408111;19;20018;-70
2023/09/12 04:02:12;;;;;;;17.40;14.20;;;;;;;16.29;71.49;100560.84;7407438;19;20498;-70
2023/09/12 04:04:40;;;;;;;15.05;12.27;;;;;;;16.29;71.68;100568.78;7405529;19;20014;-71
2023/09/12 04:07:15;;;;;;;15.95;12.40;;;;;;;16.27;71.87;100560.06;7406984;19;20070;-70
2023/09/12 04:09:43;;;;;;;18.30;12.80;;;;;;;16.27;71.89;100568.00;7406873;19;20092;-70
2023/09/12 04:12:12;;;;;;;14.05;12.60;;;;;;;16.27;71.76;100568.00;7406359;19;20022;-70
2023/09/12 04:14:43;;;;;;;15.82;13.10;;;;;;;16.27;71.82;100570.63;7404745;19;20078;-69
2023/09/12 04:17:11;;;;;;;18.00;15.27;;;;;;;16.27;71.79;100568.00;7407930;19;20010;-70
2023/09/12 04:19:40;;;;;;;20.65;16.85;;;;;;;16.27;72.24;100560.91;7399232;19;20028;-69
2023/09/12 04:22:08;;;;;;;18.40;15.23;;;;;;;16.29;72.00;100558.19;7399748;19;20015;-69
2023/09/12 04:24:37;;;;;;;15.82;14.13;;;;;;;16.29;72.19;100552.91;7397278;19;20023;-70
2023/09/12 04:27:06;;;;;;;22.80;18.10;;;;;;;16.31;71.95;100566.06;7399687;19;20086;-70
2023/09/12 04:29:36;;;;;;;22.42;18.13;;;;;;;16.31;71.88;100556.31;7399625;19;20082;-70
2023/09/12 04:32:08;;;;;;;22.88;16.35;;;;;;;16.32;71.95;100557.19;7398343;19;20480;-70
2023/09/12 04:34:36;;;;;;;18.63;15.10;;;;;;;16.30;71.85;100554.59;7397589;19;20035;-69
2023/09/12 04:37:05;;;;;;;14.98;13.55;;;;;;;16.28;71.61;100546.72;7399414;19;20082;-69
2023/09/12 04:39:34;;;;;;;14.98;13.38;;;;;;;16.29;72.12;100550.25;7398778;19;20070;-70
2023/09/12 04:42:03;;;;;;;15.32;13.73;;;;;;;16.28;72.05;100548.53;7398590;19;20027;-70
2023/09/12 04:44:32;;;;;;;14.52;13.13;;;;;;;16.28;72.03;100556.47;7396698;19;20014;-69
2023/09/12 04:47:00;;;;;;;15.80;14.10;;;;;;;16.26;71.88;100553.91;7400930;19;20060;-71
2023/09/12 04:49:31;;;;;;;17.77;14.63;;;;;;;16.26;72.08;100558.31;7399905;19;20026;-70
2023/09/12 04:52:00;;;;;;;15.73;14.18;;;;;;;16.26;72.06;100553.03;7398453;19;20427;-70
2023/09/12 04:54:29;;;;;;;17.73;14.13;;;;;;;16.24;72.08;100550.47;7397447;19;20014;-70
2023/09/12 04:56:57;;;;;;;18.70;13.88;;;;;;;16.25;72.09;100554.84;7398842;19;20010;-70
2023/09/12 04:59:26;;;;;;;14.85;13.35;;;;;;;16.25;71.86;100553.97;7395431;19;20415;-70
2023/09/12 05:01:54;;;;;;;15.40;12.65;;;;;;;16.25;72.06;100556.59;7397983;19;20006;-69
2023/09/12 05:04:23;;;;;;;16.73;14.30;;;;;;;16.25;71.84;100556.59;7395608;19;20011;-70
2023/09/12 05:06:54;;;;;;;17.20;13.95;;;;;;;16.24;72.03;100569.00;7397210;19;20070;-68
2023/09/12 05:09:22;;;;;;;15.60;13.65;;;;;;;16.24;72.20;100566.34;7396576;19;20082;-69
2023/09/12 05:11:51;;;;;;;16.45;14.68;;;;;;;16.25;72.09;100567.19;7396906;19;20517;-71
2023/09/12 05:14:19;;;;;;;16.20;13.85;;;;;;;16.26;72.45;100568.91;7395986;19;20088;-70
2023/09/12 05:16:48;;;;;;;20.88;16.13;;;;;;;16.26;72.36;100572.44;7398449;19;20027;-69
2023/09/12 05:19:16;;;;;;;20.15;15.57;;;;;;;16.27;72.58;100576.78;7397205;19;20023;-71
2023/09/12 05:21:45;;;;;;;21.98;16.80;;;;;;;16.28;72.51;100573.19;7397112;19;20018;-69
2023/09/12 05:24:16;;;;;;;18.95;15.48;;;;;;;16.30;72.56;100567.81;7395948;19;20042;-70
2023/09/12 05:26:44;;;;;;;22.38;16.92;;;;;;;16.32;72.46;100579.22;7398375;19;20015;-71
2023/09/12 05:29:13;;;;;;;19.17;16.88;;;;;;;16.33;72.80;100574.75;7395806;19;20007;-70
2023/09/12 05:31:41;;;;;;;25.20;20.85;;;;;;;16.36;72.43;100577.28;7397087;19;20030;-70
2023/09/12 05:34:10;;;;;;;20.92;16.92;;;;;;;16.39;72.33;100583.28;7396107;19;20347;-70
2023/09/12 05:36:38;;;;;;;15.85;14.15;;;;;;;16.40;72.68;100582.34;7397279;19;20086;-70
2023/09/12 05:39:07;;;;;;;17.02;14.45;;;;;;;16.44;72.48;100578.63;7396556;19;20020;-70
2023/09/12 05:41:38;;;;;;;21.35;15.88;;;;;;;16.46;72.43;100583.84;7397193;19;20015;-70
2023/09/12 05:44:07;;;;;;;19.77;15.40;;;;;;;16.53;72.47;100589.69;7395255;19;20536;-70
2023/09/12 05:46:35;;;;;;;17.60;14.52;;;;;;;16.55;72.23;100591.31;7397075;19;20372;-70
2023/09/12 05:49:04;;;;;;;15.57;13.85;;;;;;;16.58;72.00;100593.84;7396397;19;20027;-69
2023/09/12 05:51:32;;;;;;;18.50;15.45;;;;;;;16.62;72.28;100602.50;7396832;19;20014;-70
2023/09/12 05:54:01;;;;;;;18.23;13.70;;;;;;;16.65;72.08;100597.03;7395462;19;20019;-70
2023/09/12 05:56:39;;;;;;;20.80;14.25;;;;;;;16.68;72.09;100599.53;7396055;19;20012;-70
2023/09/12 05:59:30;;;;;;;18.33;15.65;;;;;;;16.72;72.15;100603.75;7396221;19;20073;-68
2023/09/12 06:01:58;;;;;;;19.88;14.27;;;;;;;16.76;72.19;100599.16;7396580;19;20078;-70
2023/09/12 06:04:27;;;;;;;17.40;13.70;;;;;;;16.81;72.15;100605.06;7394288;19;20477;-69
2023/09/12 06:06:55;;;;;;;16.67;14.32;;;;;;;16.86;72.44;100607.50;7396132;19;20031;-69
2023/09/12 06:09:24;;;;;;;16.83;14.82;;;;;;;16.91;72.61;100602.88;7395690;19;20086;-69
2023/09/12 06:11:55;;;;;;;16.27;14.50;;;;;;;16.96;72.32;100605.25;7396335;19;20420;-70
2023/09/12 06:14:37;;;;;;;21.33;15.95;;;;;;;17.00;72.11;100606.84;7393661;19;20360;-69
2023/09/12 06:17:06;;;;;;;25.17;15.50;;;;;;;17.04;72.05;100608.38;7395977;19;20520;-70
2023/09/12 06:19:34;;;;;;;18.88;15.05;;;;;;;17.08;72.13;100607.28;7394505;19;20028;-70
2023/09/12 06:22:03;;;;;;;22.23;14.57;;;;;;;17.14;72.21;100617.56;7394814;19;20047;-70
2023/09/12 06:24:31;;;;;;;19.67;15.25;;;;;;;17.17;71.99;100612.09;7393338;19;20010;-70
2023/09/12 06:27:02;;;;;;;20.73;15.00;;;;;;;17.23;71.98;100610.94;7395322;19;20036;-71
2023/09/12 06:29:31;;;;;;;16.42;13.98;;;;;;;17.28;72.21;100613.38;7394303;19;20015;-70
2023/09/12 06:31:59;;;;;;;17.17;13.50;;;;;;;17.33;72.18;100609.53;7394930;19;20010;-70
2023/09/12 06:34:28;;;;;;;15.10;13.52;;;;;;;17.39;72.23;100611.88;7393717;19;20506;-69
2023/09/12 06:36:56;;;;;;;18.50;14.60;;;;;;;17.47;71.93;100618.56;7395280;19;20014;-69
2023/09/12 06:39:25;;;;;;;16.73;14.10;;;;;;;17.53;72.18;100612.94;7395373;19;20086;-70
2023/09/12 06:41:53;;;;;;;18.10;13.32;;;;;;;17.61;71.71;100616.03;7391852;19;20078;-70
2023/09/12 06:44:24;;;;;;;16.30;13.68;;;;;;;17.71;71.46;100613.75;7393869;19;20015;-70
2023/09/12 06:46:53;;;;;;;16.80;13.60;;;;;;;17.80;71.66;100623.84;7395567;19;20079;-69
2023/09/12 06:49:21;;;;;;;18.08;13.48;;;;;;;17.90;71.25;100626.88;7395182;19;20097;-70
2023/09/12 06:51:50;;;;;;;19.63;13.38;;;;;;;17.99;70.94;100634.34;7394271;19;20007;-69
2023/09/12 06:54:18;;;;;;;16.73;13.32;;;;;;;18.09;71.05;100634.72;7392891;19;20017;-71
2023/09/12 06:56:47;;;;;;;16.83;13.50;;;;;;;18.19;70.55;100637.72;7393472;19;20078;-71
2023/09/12 06:59:15;;;;;;;16.52;12.77;;;;;;;18.28;70.68;100639.84;7394510;19;20024;-69
2023/09/12 07:01:46;;;;;;;15.20;13.27;;;;;;;18.38;70.31;100640.22;7393998;19;20011;-69
2023/09/12 07:04:15;;;;;;;14.48;12.18;;;;;;;18.47;69.92;100631.72;7393062;19;20078;-70
2023/09/12 07:06:43;;;;;;;13.48;12.02;;;;;;;18.58;69.93;100636.44;7394502;19;20031;-70
2023/09/12 07:09:14;;;;;;;16.48;12.85;;;;;;;18.67;70.16;100651.00;7394702;19;20019;-70
2023/09/12 07:11:42;;;;;;;14.85;12.38;;;;;;;18.78;69.63;100650.34;7394447;19;20486;-70
2023/09/12 07:14:25;;;;;;;15.35;12.30;;;;;;;18.86;69.50;100646.31;7391336;19;20094;-71
2023/09/12 07:16:56;;;;;;;15.82;12.38;;;;;;;18.96;69.63;100636.03;7392788;19;20510;-70
2023/09/12 07:19:24;;;;;;;15.02;12.65;;;;;;;19.06;69.42;100641.66;7394140;19;20030;-69
2023/09/12 07:21:53;;;;;;;14.13;12.57;;;;;;;19.14;69.08;100638.56;7394213;19;20106;-69
2023/09/12 07:24:21;;;;;;;17.17;12.93;;;;;;;19.22;69.22;100630.97;7391910;19;20034;-68
2023/09/12 07:26:50;;;;;;;16.90;12.65;;;;;;;19.29;69.11;100637.63;7394234;19;20015;-69
2023/09/12 07:29:18;;;;;;;14.10;12.57;;;;;;;19.36;68.95;100638.97;7394983;19;20028;-70
2023/09/12 07:31:47;;;;;;;15.38;12.23;;;;;;;19.45;68.48;100637.56;7394064;19;20015;-70
2023/09/12 07:34:18;;;;;;;15.35;12.52;;;;;;;19.54;68.09;100628.19;7391662;19;20070;-70
2023/09/12 07:36:46;;;;;;;15.90;12.27;;;;;;;19.63;68.29;100632.06;7393538;19;20032;-68
2023/09/12 07:39:15;;;;;;;19.17;13.18;;;;;;;19.70;68.33;100634.25;7393749;19;20010;-68
2023/09/12 07:41:43;;;;;;;19.52;12.10;;;;;;;19.80;68.19;100634.56;7393506;19;20082;-68
2023/09/12 07:44:15;;;;;;;18.55;13.15;;;;;;;19.89;67.92;100635.81;7392044;19;20094;-68
2023/09/12 07:46:43;;;;;;;15.38;11.60;;;;;;;19.98;67.50;100624.56;7391765;19;20006;-68
2023/09/12 07:49:12;;;;;;;16.00;11.55;;;;;;;20.06;67.12;100626.75;7393407;19;20015;-68
2023/09/12 07:51:43;;;;;;;13.77;11.77;;;;;;;20.15;67.01;100631.47;7393681;19;20023;-66
2023/09/12 07:54:11;;;;;;;14.60;12.52;;;;;;;20.25;67.10;100623.75;7393628;19;20010;-69
2023/09/12 07:56:40;;;;;;;16.58;12.57;;;;;;;20.34;67.05;100623.16;7400441;19;20380;-68
2023/09/12 07:59:09;;;;;;;21.15;12.95;;;;;;;20.45;66.53;100630.47;7400881;19;20482;-68
2023/09/12 08:01:38;;;;;;;14.93;12.23;;;;;;;20.55;66.34;100624.53;7400290;19;20496;-68
2023/09/12 08:04:07;;;;;;;15.07;11.52;;;;;;;20.62;66.14;100618.69;7397969;19;20010;-68
2023/09/12 08:06:36;;;;;;;23.13;11.13;;;;;;;20.73;66.07;100622.50;7399792;19;20007;-68
2023/09/12 08:09:08;;;;;;;19.20;12.77;;;;;;;20.81;66.15;100614.84;7399802;19;20019;-67
2023/09/12 08:11:36;;;;;;;15.48;10.93;;;;;;;20.89;65.53;100616.97;7399874;19;20011;-67
2023/09/12 08:14:05;;;;;;;16.20;12.13;;;;;;;20.98;65.49;100629.72;7398358;19;20035;-68
2023/09/12 08:16:33;;;;;;;14.70;11.18;;;;;;;21.06;65.55;100615.84;7398078;19;20014;-68
2023/09/12 08:19:02;;;;;;;15.02;10.95;;;;;;;21.15;65.14;100625.88;7400444;19;20010;-68
2023/09/12 08:21:30;;;;;;;15.10;11.07;;;;;;;21.24;65.00;100619.91;7399871;19;20490;-68
2023/09/12 08:23:59;;;;;;;21.15;11.10;;;;;;;21.33;64.86;100607.75;7397863;19;20504;-68
2023/09/12 08:26:30;;;;;;;15.63;10.10;;;;;;;21.43;64.61;100613.31;7399560;19;20066;-67
2023/09/12 08:28:58;;;;;;;31.02;22.02;;;;;;;21.53;64.58;100625.03;7397237;19;20521;-68
2023/09/12 08:31:27;;;;;;;19.42;13.30;;;;;;;21.62;64.31;100624.47;7397305;19;20027;-68
2023/09/12 08:33:55;;;;;;;15.98;11.40;;;;;;;21.72;64.39;100635.31;7398002;19;20015;-67
2023/09/12 08:36:24;;;;;;;13.52;9.88;;;;;;;21.83;63.97;100636.41;7399238;19;20479;-69
2023/09/12 08:38:52;;;;;;;17.20;9.63;;;;;;;21.90;64.06;100627.84;7399584;19;20014;-69
2023/09/12 08:41:21;;;;;;;15.75;9.77;;;;;;;22.01;63.49;100628.88;7399085;19;20014;-68
2023/09/12 08:43:52;;;;;;;16.17;11.07;;;;;;;22.11;63.64;100633.44;7397802;19;20019;-68
2023/09/12 08:46:22;;;;;;;13.15;9.88;;;;;;;22.20;63.18;100633.75;7397672;19;20074;-68
2023/09/12 08:48:52;;;;;;;17.85;10.55;;;;;;;22.28;63.03;100626.88;7397557;19;20018;-69
2023/09/12 08:51:21;;;;;;;15.60;10.13;;;;;;;22.38;62.72;100629.78;7399096;19;20006;-68
2023/09/12 08:53:49;;;;;;;15.25;9.25;;;;;;;22.48;62.66;100634.44;7397008;19;20116;-68
2023/09/12 08:56:18;;;;;;;21.48;9.88;;;;;;;22.62;63.05;100626.22;7396853;19;20082;-68
2023/09/12 08:58:47;;;;;;;18.35;9.55;;;;;;;22.73;62.35;100630.78;7396721;19;20031;-68
2023/09/12 09:01:20;;;;;;;16.20;8.88;;;;;;;22.87;61.99;100633.25;7396169;19;20011;-67
2023/09/12 09:03:50;;;;;;;16.08;8.43;;;;;;;23.02;62.06;100638.44;7397943;19;20027;-67
2023/09/12 09:06:19;;;;;;;12.25;8.60;;;;;;;23.16;61.62;100648.94;7396971;19;20015;-68
2023/09/12 09:08:48;;;;;;;13.50;8.88;;;;;;;23.29;61.72;100642.66;7398850;19;20047;-68
2023/09/12 09:11:17;;;;;;;13.32;8.02;;;;;;;23.41;61.37;100650.59;7398262;19;20427;-68
2023/09/12 09:13:47;;;;;;;12.90;8.38;;;;;;;23.53;61.20;100648.81;7396453;19;20077;-67
2023/09/12 09:16:21;;;;;;;14.50;7.95;;;;;;;23.65;60.62;100655.00;7395485;19;20015;-67
2023/09/12 09:18:57;;;;;;;16.70;8.40;;;;;;;23.78;60.23;100657.56;7398511;19;20017;-67
2023/09/12 09:21:27;;;;;;;16.67;8.95;;;;;;;23.90;59.41;100659.28;7398329;19;20011;-67
2023/09/12 09:23:57;;;;;;;24.98;8.48;;;;;;;24.03;59.46;100658.34;7396724;19;20014;-68
2023/09/12 09:26:26;;;;;;;15.43;8.93;;;;;;;24.13;58.95;100661.97;7398071;19;20082;-69
2023/09/12 09:29:09;;;;;;;13.38;7.93;;;;;;;24.27;58.31;100668.06;7397631;19;20010;-69
2023/09/12 09:31:43;;;;;;;13.30;8.27;;;;;;;24.36;58.41;100660.09;7398202;19;20015;-67
2023/09/12 09:34:15;;;;;;;;;;;;;;;24.47;57.33;100669.13;7397363;19;20031;-67
2023/09/12 09:36:45;;;;;;;15.52;8.70;;;;;;;24.55;57.52;100672.00;7397315;19;19919;-67
2023/09/12 09:39:15;;;;;;;12.88;7.97;;;;;;;24.61;57.39;100663.47;7396965;19;20013;-69
2023/09/12 09:41:45;;;;;;;19.00;8.85;;;;;;;24.67;57.50;100664.84;7397060;19;20023;-69
2023/09/12 09:44:13;;;;;;;16.75;8.68;;;;;;;24.74;57.27;100663.31;7395731;19;20376;-68
2023/09/12 09:46:46;;;;;;;15.20;8.07;;;;;;;24.79;56.34;100669.16;7397090;19;20420;-70
2023/09/12 09:49:18;;;;;;;17.20;8.98;;;;;;;24.87;56.85;100655.97;7397152;19;20020;-67
2023/09/12 09:51:47;;;;;;;13.70;8.50;;;;;;;24.96;55.79;100670.44;7395257;19;20013;-69
2023/09/12 09:54:16;;;;;;;15.32;8.25;;;;;;;25.04;56.14;100659.91;7395155;19;20577;-67
2023/09/12 09:56:49;;;;;;;16.30;8.52;;;;;;;25.12;55.14;100651.19;7396580;19;20491;-68
2023/09/12 09:59:18;;;;;;;14.80;8.57;;;;;;;25.21;55.63;100657.63;7397194;19;20015;-69
2023/09/12 10:01:51;;;;;;;17.75;8.35;;;;;;;25.26;54.41;100652.69;7396479;19;20018;-70
2023/09/12 10:04:20;;;;;;;15.20;9.10;;;;;;;25.33;55.26;100643.16;7394646;19;20014;-68
2023/09/12 10:06:49;;;;;;;14.68;8.73;;;;;;;25.41;54.92;100636.31;7395721;19;20082;-68
2023/09/12 10:09:19;;;;;;;17.35;7.95;;;;;;;25.48;54.44;100627.59;7395388;19;20073;-67
2023/09/12 10:11:50;;;;;;;15.02;8.18;;;;;;;25.53;54.48;100635.25;7395491;19;20019;-68
2023/09/12 10:14:22;;;;;;;13.35;8.25;;;;;;;25.58;54.13;100633.00;7393999;19;20481;-69
2023/09/12 10:16:55;;;;;;;13.70;8.02;;;;;;;25.64;53.79;100628.91;7391389;19;20534;-68
2023/09/12 10:19:27;;;;;;;17.85;8.15;;;;;;;25.66;53.37;100626.97;7393822;19;20478;-66
2023/09/12 10:22:02;;;;;;;15.25;8.35;;;;;;;25.74;53.27;100623.59;7396005;19;20031;-68
2023/09/12 10:24:33;;;;;;;16.80;8.35;;;;;;;25.78;53.63;100625.88;7393554;19;20024;-68
2023/09/12 10:27:03;;;;;;;18.52;8.57;;;;;;;25.83;53.54;100631.72;7393819;19;20373;-67
2023/09/12 10:29:33;;;;;;;14.68;8.27;;;;;;;25.90;53.47;100632.00;7397184;19;20081;-68
2023/09/12 10:32:04;;;;;;;18.98;9.55;;;;;;;25.96;53.47;100636.00;7395316;19;20023;-66
2023/09/12 10:34:34;;;;;;;17.10;8.57;;;;;;;26.00;52.90;100632.03;7393615;19;20435;-66
2023/09/12 10:37:06;;;;;;;14.75;8.32;;;;;;;26.01;53.08;100634.59;7395563;19;20023;-66
2023/09/12 10:39:35;;;;;;;17.63;9.15;;;;;;;26.05;52.67;100640.56;7395345;19;20070;-68
2023/09/12 10:42:07;;;;;;;19.45;8.30;;;;;;;26.08;52.71;100631.38;7396053;19;20027;-68
2023/09/12 10:44:37;;;;;;;21.10;8.07;;;;;;;26.13;52.26;100631.81;7394212;19;20484;-67
2023/09/12 10:47:09;;;;;;;16.00;8.02;;;;;;;26.18;52.52;100635.81;7393445;19;20020;-67
2023/09/12 10:49:37;;;;;;;13.18;6.57;;;;;;;26.20;51.27;100638.34;7394265;19;20091;-66
2023/09/12 10:52:07;;;;;;;15.77;6.55;;;;;;;26.23;51.29;100637.22;7395118;19;20074;-67
2023/09/12 10:54:40;;;;;;;20.10;7.03;;;;;;;26.27;50.55;100631.41;7393514;19;20019;-67
2023/09/12 10:57:11;;;;;;;13.88;7.03;;;;;;;26.30;50.55;100633.84;7396012;19;20006;-68
2023/09/12 10:59:59;;;;;;;22.85;7.63;;;;;;;26.34;50.09;100618.28;7395281;19;20048;-67
2023/09/12 11:02:35;;;;;;;14.10;5.97;;;;;;;26.41;49.59;100632.03;7394727;19;20019;-68
2023/09/12 11:05:08;;;;;;;23.45;7.30;;;;;;;26.45;49.76;100625.34;7394355;19;20070;-68
2023/09/12 11:07:47;;;;;;;16.20;6.45;;;;;;;26.49;50.11;100624.13;7395036;19;20078;-67
2023/09/12 11:10:21;;;;;;;17.08;7.43;;;;;;;26.53;50.20;100614.75;7393340;19;20070;-66
2023/09/12 11:12:51;;;;;;;22.75;7.50;;;;;;;26.61;50.22;100612.22;7394912;19;20034;-66
2023/09/12 11:15:20;;;;;;;21.10;7.22;;;;;;;26.67;50.17;100608.94;7392820;19;20134;-67
2023/09/12 11:18:02;;;;;;;19.23;7.95;;;;;;;26.70;49.99;100602.44;7393879;19;20011;-67
2023/09/12 11:20:53;;;;;;;13.82;6.75;;;;;;;26.77;49.96;100606.31;7391684;19;20007;-67
2023/09/12 11:23:22;;;;;;;13.18;6.47;;;;;;;26.82;50.00;100617.47;7393750;19;20042;-68
2023/09/12 11:25:51;;;;;;;16.52;6.15;;;;;;;26.90;49.12;100607.84;7392537;19;20042;-66